TimeCST,TemperatureF,Dew PointF,Humidity,Sea Level PressureIn,VisibilityMPH,Wind Direction,Wind SpeedMPH,Gust SpeedMPH,PrecipitationIn,Events,Conditions,WindDirDegrees,DateUTC
12:13 AM,-20.2,-25.6,76,30.19,10.0,WNW,6.9,-,N/A,,Clear,290,2013-01-22 06:13:00
12:34 AM,-20.2,-27.4,69,30.19,10.0,WNW,8.1,-,N/A,,Clear,290,2013-01-22 06:34:00
12:53 AM,-20.2,-27.4,69,30.19,10.0,West,4.6,-,N/A,,Clear,270,2013-01-22 06:53:00
1:13 AM,-20.2,-27.4,69,30.19,10.0,West,5.8,-,N/A,,Clear,280,2013-01-22 07:13:00
1:34 AM,-20.2,-27.4,69,30.19,10.0,West,5.8,-,N/A,,Clear,260,2013-01-22 07:34:00
1:53 AM,-20.2,-27.4,69,30.20,10.0,West,4.6,-,N/A,,Clear,260,2013-01-22 07:53:00
2:14 AM,-23.8,-27.4,83,30.20,10.0,Calm,Calm,-,N/A,,Clear,0,2013-01-22 08:14:00
2:34 AM,-23.8,-29.2,76,30.21,10.0,Calm,Calm,-,N/A,,Clear,0,2013-01-22 08:34:00
2:53 AM,-23.8,-29.2,76,30.21,10.0,Calm,Calm,-,N/A,,Clear,0,2013-01-22 08:53:00
3:14 AM,-23.8,-29.2,76,30.21,10.0,Calm,Calm,-,N/A,,Clear,0,2013-01-22 09:14:00
3:34 AM,-23.8,-29.2,76,30.21,10.0,Calm,Calm,-,N/A,,Clear,0,2013-01-22 09:34:00
3:53 AM,-25.6,-31.0,76,30.22,10.0,Calm,Calm,-,N/A,,Clear,0,2013-01-22 09:53:00
4:14 AM,-22.0,-27.4,76,30.22,10.0,WNW,8.1,-,N/A,,Clear,290,2013-01-22 10:14:00
4:33 AM,-20.2,-25.6,76,30.22,10.0,West,9.2,-,N/A,,Clear,280,2013-01-22 10:33:00
4:53 AM,-22.0,-27.4,76,30.22,10.0,WNW,6.9,-,N/A,,Clear,290,2013-01-22 10:53:00
5:13 AM,-22.0,-27.4,76,30.22,10.0,WNW,4.6,-,N/A,,Clear,300,2013-01-22 11:13:00
5:53 AM,-23.8,-29.2,76,30.21,10.0,Calm,Calm,-,N/A,,Clear,0,2013-01-22 11:53:00
6:14 AM,-22.0,-27.4,76,30.21,10.0,Calm,Calm,-,N/A,,Clear,0,2013-01-22 12:14:00
6:33 AM,-20.2,-27.4,69,30.20,10.0,Calm,Calm,-,N/A,,Clear,0,2013-01-22 12:33:00
6:53 AM,-22.0,-27.4,76,30.21,10.0,Calm,Calm,-,N/A,,Clear,0,2013-01-22 12:53:00
7:14 AM,-23.8,-29.2,76,30.20,10.0,Calm,Calm,-,N/A,,Clear,0,2013-01-22 13:14:00
7:33 AM,-25.6,-31.0,76,30.21,10.0,Calm,Calm,-,N/A,,Clear,0,2013-01-22 13:33:00
7:54 AM,-25.6,-31.0,76,30.21,10.0,Calm,Calm,-,N/A,,Clear,0,2013-01-22 13:54:00
8:13 AM,-23.8,-29.2,76,30.20,10.0,Calm,Calm,-,N/A,,Clear,0,2013-01-22 14:13:00
8:34 AM,-25.6,-32.8,69,30.20,10.0,Calm,Calm,-,N/A,,Clear,0,2013-01-22 14:34:00
8:54 AM,-25.6,-32.8,69,30.20,10.0,South,3.5,-,N/A,,Clear,190,2013-01-22 14:54:00
9:13 AM,-25.6,-32.8,69,30.21,10.0,Calm,Calm,-,N/A,,Clear,0,2013-01-22 15:13:00
9:34 AM,-23.8,-29.2,76,30.22,10.0,South,3.5,-,N/A,,Clear,190,2013-01-22 15:34:00
9:53 AM,-20.2,-27.4,69,30.21,10.0,SSW,3.5,-,N/A,,Clear,200,2013-01-22 15:53:00
10:13 AM,-20.2,-27.4,69,30.21,10.0,Calm,Calm,-,N/A,,Clear,0,2013-01-22 16:13:00
10:34 AM,-20.2,-25.6,76,30.20,10.0,SSE,3.5,-,N/A,,Clear,150,2013-01-22 16:34:00
10:53 AM,-18.4,-25.6,70,30.21,10.0,SE,3.5,-,N/A,,Clear,140,2013-01-22 16:53:00
11:13 AM,-16.6,-23.8,70,30.20,10.0,Calm,Calm,-,N/A,,Clear,0,2013-01-22 17:13:00
11:33 AM,-14.8,-20.2,77,30.20,10.0,Calm,Calm,-,N/A,,Clear,0,2013-01-22 17:33:00
11:53 AM,-13.0,-20.2,70,30.19,10.0,Calm,Calm,-,N/A,,Clear,0,2013-01-22 17:53:00
12:14 PM,-9.4,-16.6,71,30.19,10.0,Calm,Calm,-,N/A,,Clear,0,2013-01-22 18:14:00
12:33 PM,-7.6,-16.6,65,30.18,10.0,Calm,Calm,-,N/A,,Clear,0,2013-01-22 18:33:00
12:54 PM,-9.4,-16.6,71,30.17,10.0,ESE,3.5,-,N/A,,Clear,120,2013-01-22 18:54:00
1:13 PM,-9.4,-16.6,71,30.17,10.0,South,8.1,-,N/A,,Clear,170,2013-01-22 19:13:00
1:34 PM,-7.6,-14.8,71,30.16,10.0,South,10.4,-,N/A,,Clear,170,2013-01-22 19:34:00
1:54 PM,-4.0,-13.0,65,30.15,10.0,West,4.6,-,N/A,,Clear,280,2013-01-22 19:54:00
2:13 PM,-4.0,-14.8,60,30.14,10.0,SSW,9.2,-,N/A,,Clear,200,2013-01-22 20:13:00
2:34 PM,-7.6,-14.8,71,30.14,10.0,South,12.7,-,N/A,,Clear,170,2013-01-22 20:34:00
2:54 PM,-7.6,-14.8,71,30.15,10.0,South,13.8,-,N/A,,Clear,170,2013-01-22 20:54:00
3:13 PM,-5.8,-14.8,65,30.15,10.0,South,12.7,-,N/A,,Clear,180,2013-01-22 21:13:00
3:34 PM,-5.8,-14.8,65,30.14,10.0,South,9.2,-,N/A,,Clear,180,2013-01-22 21:34:00
3:54 PM,-5.8,-14.8,65,30.14,10.0,South,11.5,-,N/A,,Clear,180,2013-01-22 21:54:00
4:13 PM,-7.6,-14.8,71,30.14,10.0,South,8.1,-,N/A,,Clear,190,2013-01-22 22:13:00
4:34 PM,-7.6,-14.8,71,30.14,10.0,SSW,11.5,-,N/A,,Clear,210,2013-01-22 22:34:00
4:54 PM,-7.6,-14.8,71,30.13,10.0,SSW,8.1,-,N/A,,Clear,200,2013-01-22 22:54:00
5:13 PM,-7.6,-16.6,65,30.12,10.0,SSW,8.1,-,N/A,,Clear,200,2013-01-22 23:13:00
5:34 PM,-7.6,-14.8,71,30.12,10.0,SSW,6.9,-,N/A,,Clear,200,2013-01-22 23:34:00
5:53 PM,-7.6,-14.8,71,30.11,10.0,SSW,8.1,-,N/A,,Clear,210,2013-01-22 23:53:00
6:14 PM,-9.4,-16.6,71,30.11,10.0,SSW,9.2,-,N/A,,Clear,210,2013-01-23 00:14:00
6:33 PM,-9.4,-16.6,71,30.10,10.0,SW,8.1,-,N/A,,Clear,220,2013-01-23 00:33:00
6:54 PM,-9.4,-16.6,71,30.10,10.0,SW,10.4,-,N/A,,Clear,230,2013-01-23 00:54:00
7:13 PM,-9.4,-16.6,71,30.10,10.0,SW,8.1,-,N/A,,Clear,230,2013-01-23 01:13:00
7:54 PM,-11.2,-18.4,70,30.09,10.0,SW,5.8,-,N/A,,Clear,220,2013-01-23 01:54:00
8:13 PM,-11.2,-18.4,70,30.08,10.0,South,3.5,-,N/A,,Clear,190,2013-01-23 02:13:00
8:34 PM,-14.8,-20.2,77,30.07,10.0,South,6.9,-,N/A,,Clear,180,2013-01-23 02:34:00
8:53 PM,-16.6,-20.2,84,30.06,10.0,South,5.8,-,N/A,,Clear,170,2013-01-23 02:53:00
9:13 PM,-14.8,-20.2,77,30.07,10.0,Calm,Calm,-,N/A,,Mostly Cloudy,0,2013-01-23 03:13:00
9:34 PM,-13.0,-18.4,77,30.06,10.0,South,5.8,-,N/A,,Overcast,190,2013-01-23 03:34:00
9:53 PM,-11.2,-16.6,77,30.06,10.0,Calm,Calm,-,N/A,,Overcast,0,2013-01-23 03:53:00
10:14 PM,-11.2,-16.6,77,30.05,10.0,SW,4.6,-,N/A,,Overcast,220,2013-01-23 04:14:00
10:54 PM,-9.4,-16.6,71,30.06,10.0,Calm,Calm,-,N/A,,Overcast,0,2013-01-23 04:54:00
11:13 PM,-9.4,-16.6,71,30.06,10.0,Calm,Calm,-,N/A,,Overcast,0,2013-01-23 05:13:00
11:34 PM,-11.2,-16.6,77,30.06,10.0,Calm,Calm,-,N/A,,Overcast,0,2013-01-23 05:34:00
11:54 PM,-11.2,-16.6,77,30.05,10.0,Calm,Calm,-,N/A,,Overcast,0,2013-01-23 05:54:00